x

Galveston,tx - 22 Nm East Of Galveston, Tx (42035) Wave Buoy

4:50pm - Sun 25th Jun 2017 All times are CDT. -5 hours from GMT.

  • Sig Wave height 2.3ft
  • Swell Direction
  • Peak Period 7s
  • Average Period 4s
  • Wind
    11mph, 13mph gusts
  • Sea Temp 86°f
  • Air Temp 83°f
  • Sea Pressure 1018.4mb
  • Galveston,tx -  22 Nm East Of Galveston, Tx
  • Galveston,tx -  22 Nm East Of Galveston, Tx

More Historic Weather Station data

Upgrade to MSW Pro to gain access to the past 30 days of data for over 8000 Wavebouys and Weather Stations around the globe.

Join Pro

Comparision Forecast

View Surf forecast
   
Sun 06/25 4:50pm 2.5ft 7s 4s 11 13 mph 1018.4mb 86f 83f
3:50pm 2.5ft 6s 4s 13 16 mph 1018.5mb 85f 83f
2:50pm 2.5ft 7s 4s 13 16 mph 1019.2mb 85f 83f
1:50pm 2.5ft 6s 4s 13 16 mph 1019.6mb 85f 83f
12:50pm 2.5ft 6s 4s 11 13 mph 1019.2mb 86f 83f
11:50am 2.5ft 7s 5s 7 9 mph 1020.4mb 85f 83f
10:50am 2.5ft 7s 5s 11 13 mph 1020.8mb 85f 83f
9:50am 2.5ft 7s 5s 11 13 mph 1020.3mb 84f 83f
8:50am 2.5ft 7s 5s 9 11 mph 1019.8mb 84f 83f
7:50am 2.5ft 7s 5s 4 7 mph 1019.2mb 84f 83f
6:50am 3ft 7s 5s 4 7 mph 1018.7mb 84f 82f
5:50am 2.5ft 7s 5s  -  2 mph 1017.9mb 84f 82f
4:50am 2.5ft 6s 5s 4 7 mph 1017.8mb 84f 82f
3:50am 2.5ft 6s 5s 4 7 mph 1018.3mb 84f 82f
2:50am 2.5ft 7s 5s 7 11 mph 1018.7mb 84f 81f
1:50am 2.5ft 6s 5s 7 9 mph 1018.8mb 85f 83f
12:50am 2.5ft 6s 5s 7 11 mph 1018.9mb 85f 83f
Sat 06/24 11:50pm 2.5ft 6s 5s 9 9 mph 1018.8mb 85f 83f
10:50pm 2.5ft 6s 5s 11 16 mph 1018.3mb 85f 84f
9:50pm 2.5ft 7s 5s 11 13 mph 1017.1mb 86f 84f
8:50pm 2.5ft 7s 5s 11 16 mph 1016mb 86f 84f
7:50pm 2.5ft 7s 5s 9 11 mph 1015.8mb 87f 84f
6:50pm 2.5ft 7s 5s  -  2 mph 1015.9mb 88f 86f
5:50pm 3ft 7s 5s  -  2 mph 1016.2mb 88f 86f
4:50pm 3ft 7s 5s 2 2 mph 1016.3mb 86f 85f
3:50pm 3ft 6s 5s 4 7 mph 1016.7mb 86f 84f
2:50pm 3ft 7s 5s 4 7 mph 1017.4mb 86f 84f
1:50pm 3.5ft 8s 5s 4 7 mph 1017.8mb 85f 83f
12:50pm 3.5ft 7s 5s 7 9 mph 1017.6mb 85f 83f
11:50am 3ft 7s 5s 7 9 mph 1017.4mb 84f 83f
10:50am 3ft 7s 5s 7 9 mph 1017.3mb 83f 83f
9:50am 3.5ft 7s 5s 11 13 mph 1016.2mb 83f 83f
8:50am 3.5ft 7s 5s 9 11 mph 1015.9mb 83f 82f
7:50am 3.5ft 8s 5s 11 13 mph 1015.3mb 83f 83f
6:50am 3.5ft 7s 5s 9 11 mph 1015.2mb 83f 82f
5:50am 3.5ft 7s 5s 9 11 mph 1014.6mb 83f 82f
4:50am 3.5ft 7s 5s 13 16 mph 1013.9mb 83f 82f
3:50am 3.5ft 7s 5s 13 16 mph 1013.8mb 83f 82f
2:50am 3.5ft 7s 5s 16 18 mph 1013.8mb 83f 83f
1:50am 3.5ft 7s 5s 18 20 mph 1013.8mb 83f 83f
12:50am 3.5ft 7s 5s 16 20 mph 1013.4mb 83f 83f
Fri 06/23 11:50pm 3.5ft 7s 5s 16 18 mph 1013.4mb 83f 83f
10:50pm 3.5ft 6s 5s 16 18 mph 1012.9mb 83f 83f
9:50pm 3.5ft 7s 5s 11 16 mph 1012.3mb 83f 83f
8:50pm 4ft 7s 5s 11 13 mph 1011.5mb 83f 83f
7:50pm 4ft 8s 5s 13 13 mph 1011mb 83f 83f
6:50pm 4ft 8s 5s 13 16 mph 1010.5mb 83f 83f
5:50pm 4.5ft 7s  -  13 16 mph 1010.3mb 83f 83f
4:50pm 4ft 8s 5s 16 20 mph 1010.7mb 83f 83f
3:50pm 4ft 7s 5s 11 13 mph 1011.1mb 83f 83f
2:50pm 4.5ft 8s 5s 11 16 mph 1011.4mb 83f 83f
1:50pm 4.5ft 8s 5s 11 13 mph 1011.6mb 83f 83f
12:50pm 4.5ft 6s 5s 11 11 mph 1011.7mb 83f 83f
11:50am 5ft 8s 5s 11 13 mph 1011.5mb 82f 83f
10:50am 5ft 7s 5s 11 13 mph 1010.9mb 82f 83f
9:50am 5ft 7s 6s 11 13 mph 1010.7mb 82f 82f
8:50am 5ft 7s 5s 13 16 mph 1010.4mb 82f 82f
7:50am 5ft 7s 5s 16 18 mph 1009.7mb 82f 82f
6:50am 5ft 7s 5s 16 20 mph 1009.2mb 82f 82f
5:50am 5ft 7s 5s 18 22 mph 1008.8mb 82f 82f
4:50am 5ft 6s 5s 20 27 mph 1008.2mb 82f 82f
3:50am 5ft 6s 5s 20 25 mph 1008.1mb 82f 82f
2:50am 5ft 6s 5s 20 25 mph 1008mb 82f 82f
1:50am 4.5ft 6s 5s 18 22 mph 1007.8mb 82f 82f
12:50am 4.5ft 6s 5s 18 22 mph 1007.9mb 82f 82f
Thu 06/22 11:50pm 4.5ft 6s 5s 18 20 mph 1007.7mb 82f 82f
10:50pm 4.5ft 7s 5s 18 22 mph 1007.5mb 82f 82f
9:50pm 4ft 7s 5s 18 22 mph 1007mb 82f 82f
8:50pm 4ft 7s 5s 18 22 mph 1006.6mb 82f 82f
7:50pm 3.5ft 6s 5s 22 25 mph 1006mb 82f 83f
6:50pm 4ft 6s 5s 20 25 mph 1006mb 82f 83f
5:50pm 4ft 6s 5s 16 18 mph 1006.1mb 82f 83f
3:50pm 4.5ft 8s 5s 20 22 mph 1006mb 82f 83f
2:50pm 4.5ft 8s 5s 20 25 mph 1006.4mb 82f 82f
1:50pm 4.5ft 8s 5s 18 22 mph 1005.9mb 82f 82f
12:50pm 5ft 6s 5s 18 20 mph 1006.3mb 82f 81f
11:50am 5.5ft 6s 5s 20 25 mph 1005.8mb 82f 79f
10:50am 6ft 6s 5s 22 29 mph 1005.1mb 82f 79f
9:50am 5ft 6s 5s 25 31 mph 1004.2mb 82f 79f
8:50am 5ft 6s 5s 25 29 mph 1003.5mb 82f 78f
7:50am 4.5ft 5s 5s 25 31 mph 1002.5mb 82f 78f
6:50am 5ft 5s 5s 25 29 mph 1001.2mb 82f 78f
5:50am 5ft 5s 5s 25 31 mph 999.6mb 82f 79f
4:50am 5ft 5s 5s 27 34 mph 998mb 82f 78f
3:50am 6ft 10s 5s 29 36 mph 996.7mb 82f 78f
2:50am 6ft 9s 5s 29 36 mph 995.6mb 82f 79f
1:50am 6ft 4s 5s 27 34 mph 995.5mb 82f 78f
12:50am 6ft 5s 5s 27 34 mph 996.1mb 82f 80f
Wed 06/21 11:50pm 6ft 5s 5s 20 27 mph 996.6mb 82f 80f
10:50pm 6.5ft 5s 5s 27 38 mph 996.5mb 82f 78f